createdAt,value
2023-10-22T00:01:26.376Z,99643.13
2023-10-22T00:03:54.284Z,99644.44
2023-10-22T00:06:23.624Z,99645.00
2023-10-22T00:08:51.450Z,99654.19
2023-10-22T00:11:19.210Z,99652.84
2023-10-22T00:13:46.975Z,99659.88
2023-10-22T00:16:14.809Z,99660.69
2023-10-22T00:18:42.618Z,99665.56
2023-10-22T00:21:10.468Z,99662.59
2023-10-22T00:23:39.631Z,99674.50
2023-10-22T00:26:07.861Z,99669.06
2023-10-22T00:28:35.759Z,99680.69
2023-10-22T00:31:03.526Z,99679.91
2023-10-22T00:33:31.468Z,99686.91
2023-10-22T00:36:00.465Z,99695.53
2023-10-22T00:38:28.407Z,99690.97
2023-10-22T00:40:57.525Z,99705.56
2023-10-22T00:43:25.288Z,99713.94
2023-10-22T00:45:55.093Z,99712.06
2023-10-22T00:48:23.885Z,99700.44
2023-10-22T00:50:51.919Z,99714.50
2023-10-22T00:53:20.068Z,99716.66
2023-10-22T00:55:49.458Z,99730.19
2023-10-22T00:58:22.262Z,99720.72
2023-10-22T01:00:50.147Z,99735.03
2023-10-22T01:03:20.205Z,99724.50
2023-10-22T01:05:48.187Z,99725.31
2023-10-22T01:08:16.053Z,99725.59
2023-10-22T01:10:43.820Z,99729.09
2023-10-22T01:13:11.682Z,99730.19
2023-10-22T01:15:40.844Z,99740.19
2023-10-22T01:18:09.507Z,99718.03
2023-10-22T01:20:37.399Z,99742.91
2023-10-22T01:23:05.181Z,99740.19
2023-10-22T01:25:34.269Z,99732.34
2023-10-22T01:28:02.061Z,99743.97
2023-10-22T01:30:30.429Z,99743.97
2023-10-22T01:32:58.288Z,99751.28
2023-10-22T01:35:26.112Z,99756.94
2023-10-22T01:37:53.905Z,99756.13
2023-10-22T01:40:21.720Z,99775.03
2023-10-22T01:42:51.570Z,99763.97
2023-10-22T01:45:19.620Z,99771.00
2023-10-22T01:47:47.539Z,99779.91
2023-10-22T01:50:15.594Z,99781.00
2023-10-22T01:52:43.318Z,99785.59
2023-10-22T01:55:11.100Z,99793.69
2023-10-22T01:57:38.855Z,99788.56
2023-10-22T02:00:11.878Z,99791.56
2023-10-22T02:02:41.062Z,99790.19
2023-10-22T02:05:09.544Z,99803.44
2023-10-22T02:07:39.204Z,99813.97
2023-10-22T02:10:09.745Z,99816.94
2023-10-22T02:12:38.201Z,99821.53
2023-10-22T02:15:09.209Z,99829.09
2023-10-22T02:17:38.313Z,99827.75
2023-10-22T02:20:10.063Z,99816.41
2023-10-22T02:22:38.316Z,99835.31
2023-10-22T02:25:07.828Z,99836.41
2023-10-22T02:27:36.276Z,99817.22
2023-10-22T02:30:04.388Z,99839.38
2023-10-22T02:32:34.062Z,99839.13
2023-10-22T02:35:01.817Z,99837.50
2023-10-22T02:37:29.748Z,99863.44
2023-10-22T02:39:57.583Z,99866.41
2023-10-22T02:42:25.376Z,99875.88
2023-10-22T02:44:53.152Z,99873.72
2023-10-22T02:47:20.913Z,99878.03
2023-10-22T02:49:50.091Z,99865.06
2023-10-22T02:52:17.887Z,99886.94
2023-10-22T02:54:45.646Z,99895.88
2023-10-22T02:57:13.426Z,99890.47
2023-10-22T02:59:41.265Z,99907.75
2023-10-22T03:02:09.040Z,99915.59
2023-10-22T03:04:37.134Z,99917.50
2023-10-22T03:07:06.567Z,99911.28
2023-10-22T03:09:34.702Z,99918.31
2023-10-22T03:12:02.558Z,99900.72
2023-10-22T03:14:30.368Z,99931.00
2023-10-22T03:16:58.804Z,99939.41
2023-10-22T03:19:26.681Z,99923.44
2023-10-22T03:21:54.391Z,99954.00
2023-10-22T03:24:24.128Z,99959.41
2023-10-22T03:26:51.987Z,99963.19
2023-10-22T03:29:19.759Z,99951.25
2023-10-22T03:31:47.584Z,99982.38
2023-10-22T03:34:15.354Z,99989.66
2023-10-22T03:36:43.201Z,99991.56
2023-10-22T03:39:11.026Z,99994.25
2023-10-22T03:41:40.315Z,99990.47
2023-10-22T03:44:08.105Z,99996.16
2023-10-22T03:46:35.959Z,99997.47
2023-10-22T03:49:03.939Z,99994.47
2023-10-22T03:51:31.783Z,100022.63
2023-10-22T03:54:00.672Z,100027.22
2023-10-22T03:56:28.441Z,100032.06
2023-10-22T03:58:57.501Z,100035.59
2023-10-22T04:01:25.300Z,100035.03
2023-10-22T04:03:53.176Z,100038.81
2023-10-22T04:06:21.005Z,100047.19
2023-10-22T04:08:48.841Z,100049.91
2023-10-22T04:11:20.854Z,100052.88
2023-10-22T04:13:48.794Z,100065.56
2023-10-22T04:16:18.708Z,100062.06
2023-10-22T04:18:46.536Z,100070.97
2023-10-22T04:21:15.463Z,100067.47
2023-10-22T04:23:43.703Z,100073.13
2023-10-22T04:26:14.927Z,100062.53
2023-10-22T04:28:43.932Z,100085.00
2023-10-22T04:31:11.796Z,100086.34
2023-10-22T04:33:41.753Z,100082.03
2023-10-22T04:36:17.136Z,100086.88
2023-10-22T04:38:45.020Z,100104.19
2023-10-22T04:41:13.156Z,100104.47
2023-10-22T04:43:41.073Z,100111.75
2023-10-22T04:46:08.919Z,100111.47
2023-10-22T04:48:37.201Z,100113.63
2023-10-22T04:51:10.404Z,100125.53
2023-10-22T04:53:38.482Z,100120.38
2023-10-22T04:56:07.433Z,100116.88
2023-10-22T04:58:36.502Z,100128.47
2023-10-22T05:01:04.385Z,100130.38
2023-10-22T05:03:32.337Z,100139.56
2023-10-22T05:06:07.793Z,100131.97
2023-10-22T05:08:39.416Z,100144.16
2023-10-22T05:11:08.020Z,100147.94
2023-10-22T05:13:35.825Z,100159.25
2023-10-22T05:16:03.919Z,100166.03
2023-10-22T05:18:31.977Z,100165.47
2023-10-22T05:21:03.163Z,100167.09
2023-10-22T05:23:31.228Z,100166.28
2023-10-22T05:26:06.355Z,100163.56
2023-10-22T05:28:34.275Z,100174.38
2023-10-22T05:31:02.091Z,100186.53
2023-10-22T05:33:30.044Z,100180.06
2023-10-22T05:35:58.311Z,100190.03
2023-10-22T05:38:26.072Z,100189.22
2023-10-22T05:40:53.813Z,100183.53
2023-10-22T05:43:22.988Z,100199.50
2023-10-22T05:45:58.770Z,100204.06
2023-10-22T05:48:26.773Z,100211.38
2023-10-22T05:50:54.589Z,100205.94
2023-10-22T05:53:22.430Z,100218.91
2023-10-22T05:55:57.353Z,100213.41
2023-10-22T05:58:26.568Z,100233.06
2023-10-22T06:00:55.297Z,100236.31
2023-10-22T06:03:23.410Z,100240.41
2023-10-22T06:05:51.327Z,100249.06
2023-10-22T06:08:19.159Z,100255.84
2023-10-22T06:10:47.525Z,100250.16
2023-10-22T06:13:15.473Z,100262.59
2023-10-22T06:15:45.791Z,100267.66
2023-10-22T06:18:14.171Z,100267.66
2023-10-22T06:20:42.309Z,100274.69
2023-10-22T06:23:10.384Z,100282.78
2023-10-22T06:25:38.116Z,100286.31
2023-10-22T06:28:06.881Z,100293.59
2023-10-22T06:30:35.213Z,100297.94
2023-10-22T06:33:05.248Z,100307.66
2023-10-22T06:35:33.391Z,100308.44
2023-10-22T06:38:01.161Z,100308.72
2023-10-22T06:40:29.002Z,100322.25
2023-10-22T06:42:57.191Z,100318.97
2023-10-22T06:45:25.038Z,100326.81
2023-10-22T06:47:52.970Z,100333.84
2023-10-22T06:50:22.116Z,100331.41
2023-10-22T06:52:49.838Z,100326.53
2023-10-22T06:55:17.647Z,100332.47
2023-10-22T06:57:47.203Z,100334.94
2023-10-22T07:00:15.800Z,100348.44
2023-10-22T07:02:44.960Z,100347.63
2023-10-22T07:05:12.792Z,100348.69
2023-10-22T07:07:44.103Z,100348.94
2023-10-22T07:10:12.252Z,100355.72
2023-10-22T07:12:40.128Z,100345.06
2023-10-22T07:15:10.373Z,100361.13
2023-10-22T07:17:38.233Z,100373.81
2023-10-22T07:20:07.436Z,100370.78
2023-10-22T07:22:35.216Z,100390.25
2023-10-22T07:25:04.660Z,100391.06
2023-10-22T07:27:32.482Z,100403.50
2023-10-22T07:30:00.311Z,100376.66
2023-10-22T07:32:28.171Z,100411.38
2023-10-22T07:34:55.924Z,100407.59
2023-10-22T07:37:24.023Z,100417.31
2023-10-22T07:39:51.759Z,100398.81
2023-10-22T07:42:20.945Z,100428.13
2023-10-22T07:44:52.309Z,100410.44
2023-10-22T07:47:20.185Z,100435.16
2023-10-22T07:49:52.773Z,100437.88
2023-10-22T07:52:20.670Z,100443.78
2023-10-22T07:54:50.895Z,100438.88
2023-10-22T07:57:20.101Z,100438.06
2023-10-22T07:59:47.950Z,100436.44
2023-10-22T08:02:15.714Z,100433.66
2023-10-22T08:04:43.826Z,100438.88
2023-10-22T08:07:11.607Z,100448.59
2023-10-22T08:09:39.436Z,100438.63
2023-10-22T08:12:08.766Z,100450.25
2023-10-22T08:14:38.190Z,100442.94
2023-10-22T08:17:06.066Z,100457.28
2023-10-22T08:19:33.887Z,100459.72
2023-10-22T08:22:01.909Z,100463.50
2023-10-22T08:24:30.625Z,100465.13
2023-10-22T08:27:01.076Z,100459.72
2023-10-22T08:29:28.894Z,100465.44
2023-10-22T08:31:58.096Z,100474.34
2023-10-22T08:34:26.138Z,100471.34
2023-10-22T08:36:53.922Z,100478.69
2023-10-22T08:39:21.830Z,100480.56
2023-10-22T08:42:01.308Z,100479.34
2023-10-22T08:44:30.371Z,100488.19
2023-10-22T08:46:59.592Z,100489.53
2023-10-22T08:49:29.373Z,100473.22
2023-10-22T08:51:58.160Z,100500.09
2023-10-22T08:54:27.637Z,100501.97
2023-10-22T08:56:55.937Z,100502.78
2023-10-22T08:59:24.499Z,100487.34
2023-10-22T09:01:52.921Z,100502.28
2023-10-22T09:04:22.334Z,100504.16
2023-10-22T09:06:54.655Z,100508.50
2023-10-22T09:09:34.626Z,100513.66
2023-10-22T09:12:05.081Z,100514.72
2023-10-22T09:14:32.992Z,100510.94
2023-10-22T09:17:15.852Z,100514.47
2023-10-22T09:19:48.269Z,100532.31
2023-10-22T09:22:23.740Z,100529.59
2023-10-22T09:24:54.125Z,100534.44
2023-10-22T09:27:26.213Z,100537.97
2023-10-22T09:29:54.759Z,100531.75
2023-10-22T09:32:23.068Z,100533.63
2023-10-22T09:34:52.299Z,100542.28
2023-10-22T09:37:20.122Z,100550.41
2023-10-22T09:39:47.980Z,100551.22
2023-10-22T09:42:18.156Z,100556.63
2023-10-22T09:44:46.788Z,100560.97
2023-10-22T09:47:22.422Z,100558.25
2023-10-22T09:49:54.142Z,100559.06
2023-10-22T09:52:24.430Z,100565.03
2023-10-22T09:54:55.921Z,100565.88
2023-10-22T09:57:29.817Z,100568.56
2023-10-22T09:59:59.826Z,100577.47
2023-10-22T10:02:28.574Z,100570.19
2023-10-22T10:04:59.754Z,100583.47
2023-10-22T10:07:28.065Z,100585.09
2023-10-22T10:09:57.011Z,100578.88
2023-10-22T10:12:28.997Z,100576.97
2023-10-22T10:14:57.020Z,100590.50
2023-10-22T10:17:24.893Z,100590.25
2023-10-22T10:19:52.816Z,100591.06
2023-10-22T10:22:40.375Z,100589.19
2023-10-22T10:25:30.826Z,100586.47
2023-10-22T10:28:03.307Z,100599.97
2023-10-22T10:30:31.591Z,100607.03
2023-10-22T10:33:14.283Z,100606.22
2023-10-22T10:35:47.934Z,100602.38
2023-10-22T10:38:29.455Z,100593.69
2023-10-22T10:40:58.029Z,100613.00
2023-10-22T10:44:03.741Z,100608.41
2023-10-22T10:46:32.776Z,100615.69
2023-10-22T10:49:00.743Z,100611.94
2023-10-22T10:51:29.470Z,100611.94
2023-10-22T10:54:22.711Z,100620.03
2023-10-22T10:56:56.242Z,100610.84
2023-10-22T10:59:35.610Z,100600.31
2023-10-22T11:02:09.027Z,100609.22
2023-10-22T11:04:38.819Z,100601.69
2023-10-22T11:07:18.776Z,100608.97
2023-10-22T11:09:55.969Z,100602.50
2023-10-22T11:12:25.987Z,100604.38
2023-10-22T11:14:58.057Z,100614.94
2023-10-22T11:17:26.640Z,100592.38
2023-10-22T11:19:54.770Z,100608.16
2023-10-22T11:22:22.661Z,100620.91
2023-10-22T11:24:52.286Z,100614.69
2023-10-22T11:27:22.100Z,100621.72
2023-10-22T11:29:51.136Z,100626.06
2023-10-22T11:32:20.011Z,100631.47
2023-10-22T11:34:52.549Z,100635.75
2023-10-22T11:37:21.820Z,100627.56
2023-10-22T11:39:50.111Z,100637.44
2023-10-22T11:42:18.001Z,100648.81
2023-10-22T11:44:47.779Z,100636.63
2023-10-22T11:47:26.998Z,100638.28
2023-10-22T11:49:55.658Z,100649.97
2023-10-22T11:52:39.814Z,100650.97
2023-10-22T11:55:15.104Z,100667.25
2023-10-22T11:57:46.660Z,100665.63
2023-10-22T12:00:16.818Z,100671.03
2023-10-22T12:02:44.917Z,100666.63
2023-10-22T12:05:13.648Z,100668.31
2023-10-22T12:07:41.606Z,100667.50
2023-10-22T12:10:11.469Z,100675.59
2023-10-22T12:12:39.518Z,100670.44
2023-10-22T12:15:09.233Z,100678.81
2023-10-22T12:17:38.474Z,100686.41
2023-10-22T12:20:07.465Z,100691.16
2023-10-22T12:22:35.294Z,100685.66
2023-10-22T12:25:05.193Z,100691.81
2023-10-22T12:27:33.273Z,100688.66
2023-10-22T12:30:01.178Z,100696.09
2023-10-22T12:32:29.108Z,100701.09
2023-10-22T12:34:58.519Z,100699.94
2023-10-22T12:37:26.314Z,100707.09
2023-10-22T12:39:54.596Z,100709.53
2023-10-22T12:42:22.404Z,100713.84
2023-10-22T12:44:50.452Z,100707.19
2023-10-22T12:47:18.888Z,100713.38
2023-10-22T12:49:46.997Z,100709.47
2023-10-22T12:52:16.304Z,100709.97
2023-10-22T12:54:46.164Z,100697.91
2023-10-22T12:57:14.194Z,100718.53
2023-10-22T12:59:42.024Z,100719.31
2023-10-22T13:02:11.236Z,100720.63
2023-10-22T13:04:39.504Z,100711.38
2023-10-22T13:07:08.106Z,100702.13
2023-10-22T13:09:37.323Z,100720.31
2023-10-22T13:12:05.663Z,100713.25
2023-10-22T13:14:33.515Z,100728.69
2023-10-22T13:17:01.671Z,100731.38
2023-10-22T13:19:29.536Z,100731.13
2023-10-22T13:21:57.360Z,100730.31
2023-10-22T13:24:25.347Z,100728.69
2023-10-22T13:26:55.063Z,100728.16
2023-10-22T13:29:22.889Z,100729.56
2023-10-22T13:31:51.498Z,100732.25
2023-10-22T13:34:19.264Z,100733.59
2023-10-22T13:36:47.412Z,100737.94
2023-10-22T13:39:15.278Z,100736.03
2023-10-22T13:41:43.893Z,100749.56
2023-10-22T13:44:13.164Z,100735.22
2023-10-22T13:46:40.964Z,100740.13
2023-10-22T13:49:08.776Z,100742.84
2023-10-22T13:51:36.574Z,100752.00
2023-10-22T13:54:04.842Z,100758.50
2023-10-22T13:56:32.611Z,100754.97
2023-10-22T13:59:01.491Z,100751.44
2023-10-22T14:01:30.737Z,100753.91
2023-10-22T14:03:58.718Z,100759.31
2023-10-22T14:06:26.651Z,100766.03
2023-10-22T14:08:54.536Z,100766.38
2023-10-22T14:11:23.122Z,100760.38
2023-10-22T14:13:52.230Z,100763.91
2023-10-22T14:16:21.612Z,100770.38
2023-10-22T14:18:50.962Z,100767.44
2023-10-22T14:21:21.581Z,100765.22
2023-10-22T14:23:49.452Z,100758.50
2023-10-22T14:26:17.230Z,100766.38
2023-10-22T14:28:45.049Z,100767.44
2023-10-22T14:31:12.843Z,100771.78
2023-10-22T14:33:41.932Z,100773.41
2023-10-22T14:36:13.452Z,100762.03
2023-10-22T14:38:41.307Z,100769.38
2023-10-22T14:41:09.131Z,100769.94
2023-10-22T14:43:36.984Z,100772.66
2023-10-22T14:46:05.375Z,100775.38
2023-10-22T14:48:33.638Z,100766.44
2023-10-22T14:51:02.778Z,100774.28
2023-10-22T14:53:32.840Z,100784.28
2023-10-22T14:56:01.899Z,100778.88
2023-10-22T14:58:30.550Z,100789.72
2023-10-22T15:01:03.069Z,100786.19
2023-10-22T15:03:31.292Z,100796.19
2023-10-22T15:05:59.534Z,100795.63
2023-10-22T15:08:27.565Z,100777.63
2023-10-22T15:10:56.772Z,100794.81
2023-10-22T15:13:24.778Z,100798.31
2023-10-22T15:15:52.565Z,100802.66
2023-10-22T15:18:20.465Z,100806.19
2023-10-22T15:20:50.620Z,100802.41
2023-10-22T15:23:19.142Z,100807.25
2023-10-22T15:25:48.172Z,100808.06
2023-10-22T15:28:18.275Z,100821.59
2023-10-22T15:30:47.223Z,100816.44
2023-10-22T15:33:15.784Z,100818.31
2023-10-22T15:35:43.669Z,100818.31
2023-10-22T15:38:14.329Z,100819.97
2023-10-22T15:40:42.198Z,100812.34
2023-10-22T15:43:12.009Z,100815.06
2023-10-22T15:45:45.955Z,100816.94
2023-10-22T15:48:14.522Z,100826.19
2023-10-22T15:50:43.821Z,100831.59
2023-10-22T15:53:12.090Z,100829.16
2023-10-22T15:55:40.245Z,100827.25
2023-10-22T15:58:08.000Z,100828.34
2023-10-22T16:00:37.078Z,100829.16
2023-10-22T16:03:06.566Z,100836.78
2023-10-22T16:05:38.922Z,100837.78
2023-10-22T16:08:08.017Z,100849.13
2023-10-22T16:10:36.234Z,100844.22
2023-10-22T16:13:04.895Z,100846.84
2023-10-22T16:15:32.778Z,100843.78
2023-10-22T16:18:00.692Z,100855.38
2023-10-22T16:20:29.971Z,100860.44
2023-10-22T16:22:58.438Z,100858.09
2023-10-22T16:25:26.587Z,100857.94
2023-10-22T16:27:54.340Z,100867.81
2023-10-22T16:30:22.847Z,100882.53
2023-10-22T16:32:53.694Z,100876.84
2023-10-22T16:35:21.647Z,100881.13
2023-10-22T16:37:50.783Z,100886.69
2023-10-22T16:40:18.621Z,100885.44
2023-10-22T16:42:47.454Z,100882.28
2023-10-22T16:45:15.398Z,100895.44
2023-10-22T16:47:43.229Z,100896.66
2023-10-22T16:50:11.671Z,100898.16
2023-10-22T16:52:39.437Z,100904.03
2023-10-22T16:55:10.033Z,100899.94
2023-10-22T16:57:37.860Z,100902.53
2023-10-22T17:00:08.471Z,100913.59
2023-10-22T17:02:36.479Z,100924.44
2023-10-22T17:05:04.382Z,100920.34
2023-10-22T17:07:34.641Z,100924.38
2023-10-22T17:10:03.155Z,100924.88
2023-10-22T17:12:31.390Z,100921.59
2023-10-22T17:14:59.913Z,100933.75
2023-10-22T17:17:28.147Z,100931.56
2023-10-22T17:19:56.081Z,100933.94
2023-10-22T17:22:23.952Z,100934.19
2023-10-22T17:24:51.700Z,100934.69
2023-10-22T17:27:19.532Z,100946.59
2023-10-22T17:29:48.656Z,100952.25
2023-10-22T17:32:16.402Z,100948.16
2023-10-22T17:34:44.157Z,100951.94
2023-10-22T17:37:12.560Z,100953.25
2023-10-22T17:39:41.941Z,100945.06
2023-10-22T17:42:11.772Z,100953.75
2023-10-22T17:44:40.827Z,100967.28
2023-10-22T17:47:10.077Z,100967.28
2023-10-22T17:49:38.181Z,100969.16
2023-10-22T17:52:06.733Z,100974.56
2023-10-22T17:54:34.533Z,100978.34
2023-10-22T17:57:02.709Z,100969.00
2023-10-22T17:59:30.515Z,100982.38
2023-10-22T18:01:58.765Z,100988.59
2023-10-22T18:04:28.513Z,100991.63
2023-10-22T18:06:56.734Z,100998.69
2023-10-22T18:09:24.548Z,100998.69
2023-10-22T18:11:52.368Z,100998.69
2023-10-22T18:14:20.130Z,101000.56
2023-10-22T18:16:49.824Z,101005.16
2023-10-22T18:19:27.234Z,101007.31
2023-10-22T18:22:05.029Z,101015.41
2023-10-22T18:24:32.850Z,101020.84
2023-10-22T18:27:00.626Z,101019.19
2023-10-22T18:29:28.333Z,101024.03
2023-10-22T18:31:57.634Z,101018.13
2023-10-22T18:34:28.571Z,101017.88
2023-10-22T18:36:56.419Z,101018.44
2023-10-22T18:39:25.624Z,101027.63
2023-10-22T18:42:07.545Z,101031.16
2023-10-22T18:44:39.906Z,101032.22
2023-10-22T18:47:07.876Z,101030.59
2023-10-22T18:49:35.678Z,101029.78
2023-10-22T18:52:05.130Z,101032.41
2023-10-22T18:54:34.259Z,101032.97
2023-10-22T18:57:02.020Z,101037.56
2023-10-22T18:59:29.829Z,101035.94
2023-10-22T19:01:57.689Z,101040.53
2023-10-22T19:04:25.597Z,101042.66
2023-10-22T19:06:55.880Z,101047.25
2023-10-22T19:09:23.972Z,101044.44
2023-10-22T19:11:53.149Z,101045.03
2023-10-22T19:14:20.917Z,101053.16
2023-10-22T19:16:48.719Z,101036.41
2023-10-22T19:19:16.664Z,101063.41
2023-10-22T19:21:44.539Z,101069.88
2023-10-22T19:24:12.362Z,101068.22
2023-10-22T19:26:40.151Z,101071.19
2023-10-22T19:29:09.315Z,101074.13
2023-10-22T19:31:39.130Z,101081.44
2023-10-22T19:34:07.152Z,101079.78
2023-10-22T19:36:35.227Z,101084.38
2023-10-22T19:39:03.187Z,101087.31
2023-10-22T19:41:31.292Z,101084.63
2023-10-22T19:43:59.920Z,101091.91
2023-10-22T19:46:29.185Z,101095.34
2023-10-22T19:48:57.013Z,101102.16
2023-10-22T19:51:24.854Z,101111.34
2023-10-22T19:53:53.199Z,101108.63
2023-10-22T19:56:20.933Z,101117.81
2023-10-22T19:58:49.353Z,101117.81
2023-10-22T20:01:19.586Z,101119.94
2023-10-22T20:03:50.397Z,101117.25
2023-10-22T20:06:20.688Z,101119.38
2023-10-22T20:08:49.694Z,101118.56
2023-10-22T20:11:17.717Z,101118.78
2023-10-22T20:13:46.352Z,101122.31
2023-10-22T20:16:21.878Z,101129.63
2023-10-22T20:18:52.242Z,101128.44
2023-10-22T20:21:21.068Z,101129.53
2023-10-22T20:23:49.440Z,101138.22
2023-10-22T20:26:17.242Z,101140.09
2023-10-22T20:28:46.426Z,101136.00
2023-10-22T20:31:15.649Z,101133.78
2023-10-22T20:33:45.297Z,101142.81
2023-10-22T20:36:16.997Z,101143.63
2023-10-22T20:38:45.836Z,101138.22
2023-10-22T20:41:14.435Z,101141.16
2023-10-22T20:43:44.072Z,101140.34
2023-10-22T20:46:12.093Z,101141.16
2023-10-22T20:48:40.088Z,101139.75
2023-10-22T20:51:10.274Z,101140.81
2023-10-22T20:53:40.367Z,101140.25
2023-10-22T20:56:09.708Z,101142.94
2023-10-22T20:58:37.551Z,101142.13
2023-10-22T21:01:16.884Z,101143.75
2023-10-22T21:03:46.347Z,101140.25
2023-10-22T21:06:14.877Z,101145.16
2023-10-22T21:08:44.893Z,101149.50
2023-10-22T21:11:13.569Z,101147.88
2023-10-22T21:13:41.532Z,101142.47
2023-10-22T21:16:11.920Z,101126.28
2023-10-22T21:18:42.298Z,101142.94
2023-10-22T21:21:10.175Z,101141.88
2023-10-22T21:23:39.799Z,101140.81
2023-10-22T21:26:09.522Z,101143.03
2023-10-22T21:28:37.403Z,101140.34
2023-10-22T21:31:06.531Z,101140.34
2023-10-22T21:33:34.714Z,101136.81
2023-10-22T21:36:03.879Z,101144.94
2023-10-22T21:38:32.041Z,101147.88
2023-10-22T21:41:00.103Z,101150.00
2023-10-22T21:43:29.540Z,101150.25
2023-10-22T21:46:06.781Z,101151.31
2023-10-22T21:48:34.684Z,101149.06
2023-10-22T21:51:02.501Z,101152.03
2023-10-22T21:53:30.373Z,101149.78
2023-10-22T21:55:59.585Z,101157.91
2023-10-22T21:58:27.420Z,101158.97
2023-10-22T22:00:57.123Z,101158.16
2023-10-22T22:03:25.155Z,101159.44
2023-10-22T22:05:53.063Z,101162.41
2023-10-22T22:08:20.883Z,101161.81
2023-10-22T22:10:48.751Z,101160.13
2023-10-22T22:13:17.805Z,101154.72
2023-10-22T22:15:45.755Z,101163.91
2023-10-22T22:18:14.957Z,101159.56
2023-10-22T22:20:42.741Z,101155.22
2023-10-22T22:23:11.026Z,101158.16
2023-10-22T22:25:45.090Z,101148.16
2023-10-22T22:28:13.917Z,101157.34
2023-10-22T22:30:41.926Z,101151.91
2023-10-22T22:33:09.771Z,101150.28
2023-10-22T22:35:38.903Z,101154.88
2023-10-22T22:38:06.771Z,101159.69
2023-10-22T22:40:34.597Z,101159.69
2023-10-22T22:43:02.327Z,101159.09
2023-10-22T22:45:30.179Z,101159.09
2023-10-22T22:47:58.034Z,101157.47
2023-10-22T22:50:26.089Z,101160.16
2023-10-22T22:52:55.228Z,101168.50
2023-10-22T22:55:23.056Z,101172.28
2023-10-22T22:57:50.846Z,101175.81
2023-10-22T23:00:19.688Z,101179.56
2023-10-22T23:02:47.638Z,101175.22
2023-10-22T23:05:15.496Z,101177.34
2023-10-22T23:07:43.287Z,101180.88
2023-10-22T23:10:12.860Z,101178.41
2023-10-22T23:12:40.713Z,101182.16
2023-10-22T23:15:10.336Z,101173.94
2023-10-22T23:17:38.134Z,101180.75
2023-10-22T23:20:06.947Z,101183.47
2023-10-22T23:22:34.772Z,101182.63
2023-10-22T23:25:02.532Z,101179.13
2023-10-22T23:27:31.686Z,101182.63
2023-10-22T23:29:59.543Z,101188.28
2023-10-22T23:32:27.398Z,101180.41
2023-10-22T23:34:55.160Z,101185.00
2023-10-22T23:37:22.939Z,101183.34
2023-10-22T23:39:52.542Z,101186.28
2023-10-22T23:42:20.430Z,101188.75
2023-10-22T23:44:49.587Z,101183.59
2023-10-22T23:47:17.360Z,101188.16
2023-10-22T23:49:45.163Z,101189.22
2023-10-22T23:52:12.957Z,101193.00
2023-10-22T23:54:40.962Z,101181.00
2023-10-22T23:57:08.932Z,101203.81
2023-10-22T23:59:36.822Z,101190.53
